AirNav   Everest Fuels
 
 423 users online  

PS16 Holy Redeemer Hospital Heliport
Philadelphia, Pennsylvania, USA

GOING TO PHILADELPHIA?


FAA INFORMATION EFFECTIVE 02 JANUARY 2020

Location

FAA Identifier: PS16
Lat/Long: 40-06-42.8000N 075-04-52.8000W
40-06.713333N 075-04.880000W
40.1118889,-75.0813333
(estimated)
Elevation: 200 ft. / 61 m (estimated)
Variation: 12W (1985)
From city: 10 miles NE of PHILADELPHIA, PA
Time zone: UTC -5 (UTC -4 during Daylight Saving Time)
Zip code: 19046

Heliport Operations

Heliport use: Private use, MEDICAL USE.
Activation date: 06/1983
Control tower: no
ARTCC: NEW YORK CENTER
FSS: WILLIAMSPORT FLIGHT SERVICE STATION
Attendance: CONTINUOUS
Wind indicator: yes
Segmented circle: no

Heliport Communications

WX ASOS at PNE (4 nm SE): 121.15 (215-677-0146)
WX AWOS-3 at LOM (9 nm W): 118.925 (215-646-1068)
WX ASOS at DYL (13 nm N): 118.875 (215-345-0392)
WX ASOS at VAY (15 nm SE): 119.325 (609-267-1176)
WX ASOS at TTN (16 nm NE): 126.775 (609-538-8690)
WX ASOS at PHL (16 nm SW): PHONE 215-492-9617
WX AWOS-3 at CKZ (19 nm NW): 126.325 (215-257-7291)

Nearby radio navigation aids

VOR radial/distance  VOR name  Freq  Var
ARDr233/11.6YARDLEY VOR/DME108.2010W
PTWr116/22.9POTTSTOWN VORTAC116.5009W
GXUr297/23.1MC GUIRE VORTAC110.6012W
RBVr269/27.4ROBBINSVILLE VORTAC113.8010W
MXEr076/29.5MODENA VORTAC113.2009W
OODr030/30.3WOODSTOWN VORTAC112.8010W
SBJr219/32.3SOLBERG VOR/DME112.9010W
CYNr311/34.7COYLE VORTAC113.4010W
VCNr001/34.9CEDAR LAKE VOR/DME115.2010W
DQOr053/35.5DUPONT VORTAC114.0010W
ETXr145/39.4EAST TEXAS VOR/DME110.2009W

 
NDB name  Hdg/Dist  Freq  Var  ID
AMBLER107/9.427512WING .. -. --.
LAKEHURST288/34.539611WNEL -. . .-..

Heliport Services

Runway Information

Helipad H1

Dimensions: 80 x 80 ft. / 24 x 24 m
Surface: concrete, in good condition
Runway edge lights: PERI
Latitude: 40-06.713333N
Longitude: 075-04.880000W
Elevation: 200.0 ft.
Traffic pattern: leftleft

Heliport Ownership and Management from official FAA records

Ownership: Privately-owned
Owner: HOLY REDEEMER HOSPITAL
1648 HUNTINGDON PIKE
MEADOWBROOK, PA 19046
Phone (609) 833-2244
AND MEDICAL CENTER
Manager: MICHAEL GREEN
1648 HUNTINGDON PIKE
MEADOWBROOK, PA 19046
Phone (609) 833-2244
MANAGER CELL 609-892-1266

Additional Remarks

FOR CD CTC PHILADELPHIA APCH AT 800-354-9884.

Instrument Procedures

There are no published instrument procedures at PS16.

Some nearby airports with instrument procedures:

KPNE - Northeast Philadelphia Airport (4 nm SE)
KLOM - Wings Field Airport (9 nm W)
KDYL - Doylestown Airport (13 nm N)
KVAY - South Jersey Regional Airport (15 nm SE)
KTTN - Trenton Mercer Airport (16 nm NE)
KPHL - Philadelphia International Airport (16 nm SW)
N14 - Flying W Airport (16 nm SE)
N10 - Perkiomen Valley Airport (17 nm W)
KCKZ - Pennridge Airport (19 nm NW)
 
Loc | Ops | Rwys | IFR | FBO | Links
Com | Nav | Svcs | Stats | Notes
Area around PS16 (Holy Redeemer Hospital Heliport)
 
Road maps at: MapQuest Bing Google
 
Aerial photo
No photo
 
Sectional chart

 
Airport distance calculator
Flying to Holy Redeemer Hospital Heliport? Find the distance to fly.

From to PS16

Sunrise and sunset
Times for 18-Jan-2020
 Local
(UTC-5)
 Zulu
(UTC)
Morning civil twilight06:5111:51
Sunrise07:2012:20
Sunset17:0122:01
Evening civil twilight17:3122:31

Current date and time
Zulu (UTC)  18-Jan-2020 09:03:08
Local (UTC-5)  18-Jan-2020 04:03:08
 
METAR
KPNE 
3nm SE 
180854Z AUTO 01006KT 10SM CLR M06/M17 A3065 RMK AO2 SLP381 T10561167 58015
KLOM 
9nm W 
180855Z AUTO 01003KT 10SM CLR M07/M16 A3062 RMK AO2 T10681156
KDYL 
13nm N 
180854Z AUTO 00000KT 10SM CLR M07/M17 A3061 RMK AO2 SLP374 T10671172 58014
KVAY 
16nm SE 
ASOS 119.325 609-267-1176
180854Z AUTO 03004KT 10SM CLR M06/M16 A3063 RMK AO2 SLP374 T10611156 58018
KTTN 
16nm NE 
ASOS 133.70 609-538-8690
180853Z 35003KT 10SM CLR M07/M16 A3062 RMK AO2 SLP365 T10721161 58019
KPHL 
16nm SW 
180854Z 35007KT 10SM OVC150 M06/M18 A3064 RMK AO2 SLP376 T10561178 56018 $
KCKZ 
19nm NW 
180855Z AUTO 32004KT 10SM CLR M08/M17 A3061 RMK AO2
TAF
KPNE 
3nm SE 
180520Z 1806/1906 35005KT P6SM BKN200 FM181600 VRB04KT 6SM -SN OVC060 FM181900 16005KT 2SM -SN BR OVC020 WS020/23035KT FM182100 18009KT 2SM -SNPL BR OVC008 WS020/23035KT FM182300 19009KT 2SM -RAPL BR OVC005 WS020/23035KT FM190200 20009KT 2SM BR OVC005 WS020/23035KT
KTTN 
16nm NE 
180520Z 1806/1906 VRB02KT P6SM BKN200 FM181600 17007KT 6SM -SN OVC060 FM181900 17007KT 2SM -SN BR OVC025 WS020/23035KT FM182100 17008KT 2SM -SNPL BR OVC008 WS020/23035KT FM190000 18008KT 2SM -RAPL BR OVC005 WS020/23035KT FM190300 20008KT 2SM BR OVC005 WS020/23035KT
KPHL 
16nm SW 
180520Z 1806/1912 35006KT P6SM BKN200 FM180800 VRB04KT P6SM BKN150 FM181600 17006KT 6SM -SN BR OVC060 FM181900 17007KT 2SM -SN BR OVC020 WS020/23035KT FM182100 18011KT 2SM -SNPL BR OVC008 WS020/23035KT FM182300 19011KT 2SM -RAPL BR OVC005 WS020/23035KT FM190000 20011KT 3SM -RA BR OVC005 WS020/23035KT FM190200 23011KT 3SM BR OVC005 WS020/23035KT
NOTAMs
Click for the latest NOTAMs
NOTAMs are issued by the DoD/FAA and will open in a separate window not controlled by AirNav.

 

 
 

Would you like to see your business listed on this page?

 If your business provides an interesting product or service to pilots, flight crews, aircraft, or users of the Holy Redeemer Hospital Heliport, you should consider listing it here.  To start the listing process, click on the button below
 
Add a business
 

Other Pages about Holy Redeemer Hospital Heliport

Update a link
 
Copyright © AirNav, LLC. All rights reserved. Privacy Policy  Contact